createdAt,value
2018-12-20T00:02:04.214Z,86.68
2018-12-20T00:04:35.182Z,86.08
2018-12-20T00:07:08.818Z,86.19
2018-12-20T00:09:40.223Z,86.98
2018-12-20T00:12:11.167Z,86.77
2018-12-20T00:14:42.171Z,85.89
2018-12-20T00:17:21.292Z,86.04
2018-12-20T00:19:52.197Z,86.53
2018-12-20T00:22:23.383Z,87.21
2018-12-20T00:24:54.218Z,86.26
2018-12-20T00:27:25.491Z,87.00
2018-12-20T00:29:56.654Z,86.48
2018-12-20T00:32:27.827Z,86.75
2018-12-20T00:34:59.572Z,86.83
2018-12-20T00:37:28.873Z,86.76
2018-12-20T00:40:06.223Z,87.15
2018-12-20T00:42:32.975Z,86.35
2018-12-20T00:45:04.613Z,86.49
2018-12-20T00:47:36.172Z,86.49
2018-12-20T00:50:09.852Z,86.00
2018-12-20T00:52:41.462Z,86.80
2018-12-20T00:55:12.224Z,87.71
2018-12-20T00:57:43.557Z,86.76
2018-12-20T01:00:14.961Z,87.25
2018-12-20T01:02:46.078Z,87.86
2018-12-20T01:05:19.527Z,88.67
2018-12-20T01:07:50.862Z,88.21
2018-12-20T01:13:25.651Z,87.23
2018-12-20T01:15:55.059Z,87.80
2018-12-20T01:18:26.727Z,87.63
2018-12-20T01:20:55.999Z,88.07
2018-12-20T01:23:27.052Z,87.51
2018-12-20T01:25:58.202Z,86.95
2018-12-20T01:28:29.541Z,86.78
2018-12-20T01:31:00.381Z,86.89
2018-12-20T01:33:31.737Z,87.05
2018-12-20T01:36:03.224Z,88.25
2018-12-20T01:38:36.760Z,88.01
2018-12-20T01:41:08.181Z,87.49
2018-12-20T01:43:39.325Z,87.54
2018-12-20T01:46:10.606Z,87.63
2018-12-20T01:48:42.318Z,87.79
2018-12-20T01:51:13.185Z,88.45
2018-12-20T01:53:47.069Z,87.68
2018-12-20T01:58:47.637Z,87.45
2018-12-20T02:01:18.828Z,87.48
2018-12-20T02:03:49.820Z,87.38
2018-12-20T02:06:20.979Z,87.85
2018-12-20T02:08:51.803Z,87.56
2018-12-20T02:11:22.924Z,87.37
2018-12-20T02:13:53.898Z,87.85
2018-12-20T02:16:27.449Z,87.53
2018-12-20T02:18:58.860Z,87.82
2018-12-20T02:21:32.199Z,88.27
2018-12-20T02:24:03.881Z,88.17
2018-12-20T02:26:34.897Z,87.86
2018-12-20T02:29:05.823Z,87.89
2018-12-20T02:31:36.684Z,88.18
2018-12-20T02:34:07.876Z,88.06
2018-12-20T02:36:39.354Z,88.21
2018-12-20T02:39:11.001Z,87.78
2018-12-20T02:41:42.393Z,88.42
2018-12-20T02:44:13.448Z,89.04
2018-12-20T02:46:45.404Z,88.92
2018-12-20T02:49:16.567Z,89.06
2018-12-20T02:51:48.396Z,89.25
2018-12-20T02:54:19.324Z,87.81
2018-12-20T02:56:50.148Z,88.64
2018-12-20T02:59:21.178Z,88.53
2018-12-20T03:01:52.029Z,87.92
2018-12-20T03:04:23.239Z,87.98
2018-12-20T03:06:56.973Z,87.56
2018-12-20T03:09:32.292Z,87.80
2018-12-20T03:12:03.874Z,87.69
2018-12-20T03:14:34.931Z,88.07
2018-12-20T03:17:06.162Z,88.55
2018-12-20T03:19:38.197Z,88.09
2018-12-20T03:22:09.777Z,88.59
2018-12-20T03:24:41.051Z,89.00
2018-12-20T03:27:11.921Z,88.99
2018-12-20T03:29:42.975Z,88.09
2018-12-20T03:32:14.130Z,88.57
2018-12-20T03:34:45.042Z,89.33
2018-12-20T03:37:16.992Z,89.16
2018-12-20T03:39:47.897Z,88.52
2018-12-20T03:42:21.669Z,88.92
2018-12-20T03:44:52.779Z,88.58
2018-12-20T03:47:23.820Z,89.05
2018-12-20T03:49:54.894Z,88.54
2018-12-20T03:52:26.042Z,88.37
2018-12-20T03:54:56.973Z,89.65
2018-12-20T04:05:06.652Z,88.72
2018-12-20T04:07:37.563Z,88.80
2018-12-20T04:10:08.868Z,89.13
2018-12-20T04:12:39.784Z,88.93
2018-12-20T04:15:11.103Z,89.15
2018-12-20T04:17:40.580Z,89.47
2018-12-20T04:20:14.490Z,88.81
2018-12-20T04:22:45.895Z,88.55
2018-12-20T04:25:16.933Z,88.76
2018-12-20T04:27:48.192Z,88.90
2018-12-20T04:30:21.663Z,88.07
2018-12-20T04:32:53.524Z,88.10
2018-12-20T04:35:25.339Z,87.87
2018-12-20T04:37:56.829Z,89.11
2018-12-20T04:40:27.702Z,88.67
2018-12-20T04:42:58.772Z,88.86
2018-12-20T04:45:32.241Z,88.95
2018-12-20T04:48:03.949Z,89.14
2018-12-20T04:50:36.001Z,88.79
2018-12-20T04:53:09.641Z,88.38
2018-12-20T04:55:40.647Z,88.18
2018-12-20T04:58:14.247Z,88.80
2018-12-20T05:00:45.669Z,88.21
2018-12-20T05:03:16.771Z,87.64
2018-12-20T05:05:50.359Z,88.10
2018-12-20T05:08:21.656Z,88.09
2018-12-20T05:10:52.613Z,88.94
2018-12-20T05:13:23.643Z,88.75
2018-12-20T05:15:56.383Z,88.39
2018-12-20T05:18:27.713Z,89.00
2018-12-20T05:21:01.108Z,89.40
2018-12-20T05:23:32.367Z,88.92
2018-12-20T05:26:03.859Z,89.48
2018-12-20T05:28:35.296Z,89.65
2018-12-20T05:31:06.215Z,89.82
2018-12-20T05:33:37.513Z,89.39
2018-12-20T05:36:09.020Z,89.50
2018-12-20T05:38:39.927Z,89.42
2018-12-20T05:41:13.704Z,89.66
2018-12-20T05:43:45.092Z,89.54
2018-12-20T05:46:18.801Z,89.74
2018-12-20T05:48:50.442Z,89.85
2018-12-20T05:51:24.557Z,89.52
2018-12-20T05:53:55.811Z,89.74
2018-12-20T05:56:26.939Z,89.55
2018-12-20T05:58:57.931Z,89.04
2018-12-20T06:01:29.061Z,89.78
2018-12-20T06:04:00.820Z,89.35
2018-12-20T06:06:32.087Z,89.56
2018-12-20T06:09:06.975Z,89.16
2018-12-20T06:11:38.311Z,89.03
2018-12-20T06:14:09.295Z,89.31
2018-12-20T06:16:40.368Z,89.80
2018-12-20T06:19:15.160Z,89.93
2018-12-20T06:21:46.523Z,90.07
2018-12-20T06:24:17.459Z,90.19
2018-12-20T06:26:48.361Z,89.14
2018-12-20T06:29:19.366Z,89.83
2018-12-20T06:31:50.312Z,90.11
2018-12-20T06:34:23.896Z,89.99
2018-12-20T06:36:55.388Z,90.79
2018-12-20T06:39:26.484Z,90.28
2018-12-20T06:41:57.656Z,89.44
2018-12-20T06:44:28.641Z,89.90
2018-12-20T06:47:02.407Z,90.58
2018-12-20T06:49:33.818Z,89.70
2018-12-20T06:52:04.821Z,89.72
2018-12-20T06:54:36.210Z,89.08
2018-12-20T06:57:07.208Z,89.45
2018-12-20T06:59:38.094Z,89.80
2018-12-20T07:02:09.250Z,89.76
2018-12-20T07:04:41.024Z,89.82
2018-12-20T07:07:12.695Z,89.08
2018-12-20T07:09:43.629Z,89.59
2018-12-20T07:12:14.495Z,89.61
2018-12-20T07:14:45.515Z,90.04
2018-12-20T07:19:58.268Z,89.95
2018-12-20T07:22:29.139Z,89.16
2018-12-20T07:25:03.395Z,89.52
2018-12-20T07:27:36.332Z,89.42
2018-12-20T07:30:09.904Z,90.02
2018-12-20T07:32:43.685Z,89.26
2018-12-20T07:35:14.387Z,90.23
2018-12-20T07:37:45.318Z,89.54
2018-12-20T07:40:16.191Z,90.26
2018-12-20T07:42:47.423Z,89.17
2018-12-20T07:45:21.092Z,89.30
2018-12-20T07:47:52.628Z,88.94
2018-12-20T07:50:23.542Z,89.74
2018-12-20T07:52:54.584Z,89.01
2018-12-20T07:55:23.795Z,89.92
2018-12-20T07:57:53.619Z,89.21
2018-12-20T08:00:24.498Z,89.44
2018-12-20T08:02:55.389Z,89.37
2018-12-20T08:05:26.451Z,89.85
2018-12-20T08:07:57.690Z,88.96
2018-12-20T08:10:28.791Z,88.78
2018-12-20T08:13:00.195Z,89.16
2018-12-20T08:15:31.785Z,88.86
2018-12-20T08:18:03.854Z,88.62
2018-12-20T08:20:35.040Z,88.36
2018-12-20T08:23:06.083Z,88.30
2018-12-20T08:25:37.642Z,88.88
2018-12-20T08:28:09.165Z,88.96
2018-12-20T08:30:40.556Z,88.97
2018-12-20T08:33:15.715Z,89.12
2018-12-20T08:35:49.075Z,89.34
2018-12-20T08:41:24.575Z,88.50
2018-12-20T08:43:55.850Z,88.05
2018-12-20T08:46:26.875Z,88.16
2018-12-20T08:48:58.285Z,88.42
2018-12-20T08:51:27.988Z,88.38
2018-12-20T08:53:58.785Z,88.70
2018-12-20T08:56:30.616Z,88.28
2018-12-20T08:59:06.288Z,88.83
2018-12-20T09:01:38.631Z,88.75
2018-12-20T09:04:13.147Z,88.42
2018-12-20T09:06:46.783Z,87.79
2018-12-20T09:09:19.314Z,88.52
2018-12-20T09:11:50.227Z,88.50
2018-12-20T09:14:23.903Z,88.25
2018-12-20T09:17:02.641Z,88.81
2018-12-20T09:19:28.951Z,88.40
2018-12-20T09:21:59.947Z,88.54
2018-12-20T09:24:31.941Z,89.02
2018-12-20T09:27:02.998Z,88.93
2018-12-20T09:29:34.611Z,89.02
2018-12-20T09:32:05.839Z,88.92
2018-12-20T09:34:36.748Z,88.86
2018-12-20T09:37:07.532Z,88.74
2018-12-20T09:39:38.643Z,88.85
2018-12-20T09:42:12.136Z,88.77
2018-12-20T09:44:44.260Z,88.87
2018-12-20T09:47:21.341Z,88.58
2018-12-20T09:49:50.559Z,88.62
2018-12-20T09:52:21.723Z,88.06
2018-12-20T09:54:53.442Z,88.35
2018-12-20T09:57:26.028Z,88.46
2018-12-20T09:59:55.483Z,88.69
2018-12-20T10:02:26.450Z,88.81
2018-12-20T10:04:57.692Z,88.98
2018-12-20T10:07:31.085Z,88.90
2018-12-20T10:10:02.913Z,89.03
2018-12-20T10:12:36.835Z,89.32
2018-12-20T10:15:08.014Z,89.09
2018-12-20T10:17:41.407Z,89.30
2018-12-20T10:20:15.254Z,89.04
2018-12-20T10:22:45.887Z,89.41
2018-12-20T10:25:20.052Z,89.70
2018-12-20T10:27:51.012Z,89.46
2018-12-20T10:30:22.707Z,89.44
2018-12-20T10:32:54.580Z,89.02
2018-12-20T10:35:26.430Z,89.34
2018-12-20T10:38:00.997Z,89.32
2018-12-20T10:40:31.595Z,88.99
2018-12-20T10:43:02.820Z,89.18
2018-12-20T10:45:33.580Z,89.07
2018-12-20T10:48:05.572Z,89.36
2018-12-20T10:50:36.835Z,89.00
2018-12-20T10:53:10.156Z,89.08
2018-12-20T10:55:41.645Z,89.07
2018-12-20T10:58:12.546Z,88.92
2018-12-20T11:00:49.159Z,88.90
2018-12-20T11:03:26.920Z,88.84
2018-12-20T11:06:00.709Z,88.65
2018-12-20T11:08:36.886Z,89.16
2018-12-20T11:11:15.067Z,88.95
2018-12-20T11:13:47.279Z,89.11
2018-12-20T11:16:19.178Z,88.79
2018-12-20T11:18:48.973Z,88.91
2018-12-20T11:21:19.829Z,89.37
2018-12-20T11:23:51.267Z,89.03
2018-12-20T11:26:22.667Z,89.56
2018-12-20T11:28:53.893Z,89.05
2018-12-20T11:31:25.530Z,89.49
2018-12-20T11:33:57.191Z,89.16
2018-12-20T11:36:28.591Z,89.20
2018-12-20T11:39:08.324Z,89.61
2018-12-20T11:41:37.372Z,89.42
2018-12-20T11:44:08.252Z,89.02
2018-12-20T11:46:39.320Z,89.43
2018-12-20T11:49:12.877Z,89.65
2018-12-20T11:51:43.757Z,89.38
2018-12-20T11:54:14.867Z,89.56
2018-12-20T11:56:45.727Z,89.34
2018-12-20T11:59:16.782Z,89.80
2018-12-20T12:01:47.762Z,89.36
2018-12-20T12:04:18.759Z,89.36
2018-12-20T12:06:49.680Z,89.13
2018-12-20T12:09:21.467Z,89.20
2018-12-20T12:11:52.788Z,88.95
2018-12-20T12:14:24.494Z,89.23
2018-12-20T12:16:55.658Z,89.05
2018-12-20T12:19:26.780Z,88.86
2018-12-20T12:22:00.307Z,88.99
2018-12-20T12:24:31.856Z,89.15
2018-12-20T12:27:05.351Z,89.21
2018-12-20T12:29:39.688Z,88.80
2018-12-20T12:32:10.899Z,89.12
2018-12-20T12:34:42.199Z,89.00
2018-12-20T12:37:13.942Z,88.85
2018-12-20T12:39:47.375Z,88.70
2018-12-20T12:42:19.031Z,88.75
2018-12-20T12:44:49.928Z,88.79
2018-12-20T12:47:29.109Z,88.58
2018-12-20T12:49:59.964Z,88.78
2018-12-20T12:52:30.903Z,88.45
2018-12-20T12:58:05.983Z,88.49
2018-12-20T13:00:39.400Z,88.70
2018-12-20T13:03:10.958Z,88.91
2018-12-20T13:05:42.630Z,88.55
2018-12-20T13:08:13.706Z,87.95
2018-12-20T13:10:44.616Z,88.51
2018-12-20T13:13:15.688Z,88.52
2018-12-20T13:15:46.983Z,88.20
2018-12-20T13:18:20.687Z,88.28
2018-12-20T13:20:54.651Z,88.35
2018-12-20T13:23:26.059Z,88.47
2018-12-20T13:25:57.160Z,88.47
2018-12-20T13:28:28.424Z,88.19
2018-12-20T13:30:59.218Z,87.93
2018-12-20T13:33:30.387Z,88.12
2018-12-20T13:36:01.371Z,87.87
2018-12-20T13:38:32.547Z,87.69
2018-12-20T13:41:05.979Z,87.52
2018-12-20T13:43:37.528Z,87.56
2018-12-20T13:46:08.493Z,87.38
2018-12-20T13:48:39.550Z,87.62
2018-12-20T13:51:11.175Z,86.83
2018-12-20T13:53:42.191Z,87.08
2018-12-20T13:56:16.058Z,87.35
2018-12-20T13:58:47.531Z,87.36
2018-12-20T14:01:21.068Z,87.45
2018-12-20T14:03:52.651Z,87.46
2018-12-20T14:06:26.863Z,87.38
2018-12-20T14:08:58.489Z,87.24
2018-12-20T14:11:29.302Z,87.27
2018-12-20T14:14:00.323Z,87.24
2018-12-20T14:16:31.576Z,87.03
2018-12-20T14:19:02.604Z,86.83
2018-12-20T14:21:33.380Z,87.31
2018-12-20T14:24:06.965Z,87.08
2018-12-20T14:26:38.453Z,87.04
2018-12-20T14:29:09.586Z,86.74
2018-12-20T14:31:40.715Z,86.78
2018-12-20T14:34:14.328Z,86.82
2018-12-20T14:36:45.667Z,86.84
2018-12-20T14:39:16.642Z,86.67
2018-12-20T14:41:47.383Z,86.53
2018-12-20T14:44:18.419Z,86.99
2018-12-20T14:46:51.915Z,86.91
2018-12-20T14:49:23.523Z,86.91
2018-12-20T14:51:54.532Z,86.97
2018-12-20T14:54:27.287Z,87.08
2018-12-20T14:56:58.466Z,86.90
2018-12-20T14:59:29.664Z,86.84
2018-12-20T15:02:00.724Z,86.92
2018-12-20T15:04:31.585Z,87.05
2018-12-20T15:07:05.084Z,87.48
2018-12-20T15:09:36.542Z,87.83
2018-12-20T15:12:07.840Z,87.42
2018-12-20T15:14:38.618Z,87.57
2018-12-20T15:17:09.684Z,87.67
2018-12-20T15:22:44.274Z,87.73
2018-12-20T15:25:15.605Z,87.43
2018-12-20T15:30:18.998Z,87.62
2018-12-20T15:32:50.893Z,87.32
2018-12-20T15:35:22.035Z,87.68
2018-12-20T15:37:53.075Z,87.37
2018-12-20T15:40:24.203Z,87.64
2018-12-20T15:42:55.249Z,87.36
2018-12-20T15:45:26.200Z,87.72
2018-12-20T15:47:57.533Z,87.60
2018-12-20T15:50:29.055Z,87.76
2018-12-20T15:53:00.015Z,87.70
2018-12-20T15:55:30.856Z,87.63
2018-12-20T15:57:59.803Z,87.10
2018-12-20T16:00:31.155Z,87.50
2018-12-20T16:03:02.273Z,87.58
2018-12-20T16:05:35.812Z,87.62
2018-12-20T16:08:06.679Z,87.29
2018-12-20T16:10:41.224Z,87.51
2018-12-20T16:13:12.331Z,87.31
2018-12-20T16:15:43.589Z,87.31
2018-12-20T16:18:14.503Z,87.08
2018-12-20T16:20:45.548Z,87.54
2018-12-20T16:23:16.888Z,87.38
2018-12-20T16:25:48.039Z,87.41
2018-12-20T16:28:19.880Z,87.54
2018-12-20T16:30:50.929Z,86.96
2018-12-20T16:33:21.612Z,87.08
2018-12-20T16:35:52.483Z,87.45
2018-12-20T16:38:25.832Z,87.05
2018-12-20T16:40:57.192Z,87.05
2018-12-20T16:43:28.148Z,87.22
2018-12-20T16:45:59.199Z,87.18
2018-12-20T16:48:30.116Z,87.06
2018-12-20T16:51:01.080Z,87.39
2018-12-20T16:53:32.195Z,87.38
2018-12-20T16:56:03.261Z,87.24
2018-12-20T16:58:34.367Z,87.29
2018-12-20T17:01:05.112Z,87.16
2018-12-20T17:03:36.895Z,87.43
2018-12-20T17:06:08.438Z,87.16
2018-12-20T17:08:47.774Z,87.17
2018-12-20T17:11:11.035Z,87.31
2018-12-20T17:13:42.713Z,87.08
2018-12-20T17:16:13.719Z,87.26
2018-12-20T17:18:45.019Z,87.28
2018-12-20T17:21:16.835Z,87.27
2018-12-20T17:23:47.708Z,87.21
2018-12-20T17:26:19.279Z,87.29
2018-12-20T17:28:51.182Z,87.17
2018-12-20T17:31:25.195Z,87.22
2018-12-20T17:33:56.861Z,87.24
2018-12-20T17:36:28.611Z,86.87
2018-12-20T17:38:59.735Z,87.13
2018-12-20T17:41:30.571Z,86.75
2018-12-20T17:44:02.947Z,87.16
2018-12-20T17:46:34.483Z,86.71
2018-12-20T17:49:05.453Z,86.79
2018-12-20T17:51:36.684Z,86.62
2018-12-20T17:54:07.515Z,86.63
2018-12-20T17:56:38.572Z,86.48
2018-12-20T17:59:09.975Z,86.96
2018-12-20T18:01:41.764Z,86.72
2018-12-20T18:04:12.801Z,87.08
2018-12-20T18:06:43.819Z,86.69
2018-12-20T18:09:17.415Z,86.40
2018-12-20T18:11:51.309Z,86.39
2018-12-20T18:14:22.865Z,86.55
2018-12-20T18:16:54.487Z,86.03
2018-12-20T18:19:25.478Z,86.30
2018-12-20T18:21:56.465Z,86.15
2018-12-20T18:24:27.536Z,86.05
2018-12-20T18:26:58.571Z,86.10
2018-12-20T18:29:32.031Z,86.24
2018-12-20T18:32:03.715Z,85.91
2018-12-20T18:34:34.635Z,86.08
2018-12-20T18:37:08.312Z,86.10
2018-12-20T18:39:41.957Z,85.96
2018-12-20T18:42:13.356Z,86.02
2018-12-20T18:44:44.139Z,85.81
2018-12-20T18:47:15.027Z,85.84
2018-12-20T18:49:47.612Z,85.97
2018-12-20T18:52:19.212Z,86.25
2018-12-20T18:54:52.876Z,86.14
2018-12-20T18:57:24.580Z,86.24
2018-12-20T18:59:55.373Z,86.04
2018-12-20T19:02:26.675Z,86.13
2018-12-20T19:04:57.983Z,86.48
2018-12-20T19:07:28.995Z,86.60
2018-12-20T19:10:00.171Z,86.45
2018-12-20T19:12:31.203Z,86.74
2018-12-20T19:15:02.445Z,86.63
2018-12-20T19:17:34.211Z,87.02
2018-12-20T19:20:15.843Z,87.15
2018-12-20T19:22:42.279Z,86.81
2018-12-20T19:25:13.073Z,87.26
2018-12-20T19:27:43.874Z,87.20
2018-12-20T19:30:17.508Z,87.02
2018-12-20T19:32:48.951Z,87.18
2018-12-20T19:35:20.483Z,87.34
2018-12-20T19:37:52.339Z,87.26
2018-12-20T19:40:26.015Z,87.42
2018-12-20T19:43:00.793Z,87.55
2018-12-20T19:45:31.971Z,87.46
2018-12-20T19:48:02.952Z,87.46
2018-12-20T19:50:34.687Z,87.22
2018-12-20T19:53:05.980Z,87.44
2018-12-20T19:55:39.448Z,87.70
2018-12-20T19:58:10.945Z,87.30
2018-12-20T20:00:42.130Z,87.65
2018-12-20T20:03:13.298Z,87.41
2018-12-20T20:08:47.635Z,87.85
2018-12-20T20:11:18.603Z,88.17
2018-12-20T20:13:52.347Z,87.93
2018-12-20T20:16:21.782Z,87.70
2018-12-20T20:18:53.127Z,88.21
2018-12-20T20:21:24.200Z,87.97
2018-12-20T20:23:55.135Z,88.08
2018-12-20T20:26:28.615Z,88.01
2018-12-20T20:29:00.039Z,87.94
2018-12-20T20:31:31.335Z,88.26
2018-12-20T20:34:03.624Z,88.19
2018-12-20T20:36:35.318Z,88.12
2018-12-20T20:39:07.519Z,88.07
2018-12-20T20:41:41.855Z,87.79
2018-12-20T20:44:13.195Z,87.86
2018-12-20T20:46:44.059Z,88.28
2018-12-20T20:49:15.063Z,88.01
2018-12-20T20:51:45.958Z,88.00
2018-12-20T20:54:19.696Z,87.89
2018-12-20T20:56:51.302Z,88.03
2018-12-20T20:59:22.277Z,88.24
2018-12-20T21:01:51.717Z,87.84
2018-12-20T21:04:22.759Z,87.92
2018-12-20T21:06:54.530Z,87.73
2018-12-20T21:09:25.635Z,87.98
2018-12-20T21:11:56.627Z,87.92
2018-12-20T21:14:27.630Z,88.07
2018-12-20T21:16:58.738Z,88.09
2018-12-20T21:19:32.447Z,88.16
2018-12-20T21:22:06.485Z,88.06
2018-12-20T21:24:37.912Z,87.89
2018-12-20T21:27:11.436Z,88.08
2018-12-20T21:29:43.116Z,88.16
2018-12-20T21:32:14.219Z,88.13
2018-12-20T21:34:47.719Z,88.14
2018-12-20T21:37:18.897Z,88.42
2018-12-20T21:39:52.371Z,88.40
2018-12-20T21:42:23.954Z,88.31
2018-12-20T21:44:54.979Z,88.43
2018-12-20T21:47:26.137Z,88.47
2018-12-20T21:50:00.624Z,88.38
2018-12-20T21:52:32.143Z,88.50
2018-12-20T21:55:03.547Z,88.60
2018-12-20T21:57:35.142Z,88.51
2018-12-20T22:00:09.175Z,88.29
2018-12-20T22:02:40.363Z,88.64
2018-12-20T22:05:11.484Z,88.52
2018-12-20T22:07:42.586Z,88.52
2018-12-20T22:10:13.455Z,88.63
2018-12-20T22:12:44.377Z,88.31
2018-12-20T22:15:15.274Z,88.33
2018-12-20T22:17:46.399Z,88.45
2018-12-20T22:20:17.277Z,88.19
2018-12-20T22:22:48.371Z,88.26
2018-12-20T22:25:22.001Z,88.22
2018-12-20T22:27:53.422Z,88.21
2018-12-20T22:30:24.562Z,88.03
2018-12-20T22:32:57.919Z,87.83
2018-12-20T22:35:31.554Z,88.11
2018-12-20T22:38:03.048Z,88.02
2018-12-20T22:40:33.934Z,87.87
2018-12-20T22:43:05.209Z,87.99
2018-12-20T22:45:36.856Z,88.13
2018-12-20T22:48:07.739Z,88.03
2018-12-20T22:50:38.763Z,88.11
2018-12-20T22:53:12.260Z,88.06
2018-12-20T22:55:43.934Z,88.03
2018-12-20T22:58:14.831Z,88.09
2018-12-20T23:00:52.879Z,87.55
2018-12-20T23:03:24.466Z,87.53
2018-12-20T23:05:55.639Z,87.70
2018-12-20T23:08:26.908Z,88.03
2018-12-20T23:10:57.858Z,88.05
2018-12-20T23:13:28.779Z,87.72
2018-12-20T23:15:59.795Z,88.00
2018-12-20T23:18:30.697Z,87.69
2018-12-20T23:21:05.025Z,88.05
2018-12-20T23:23:34.788Z,87.82
2018-12-20T23:26:06.023Z,88.26
2018-12-20T23:28:37.349Z,87.75
2018-12-20T23:31:09.057Z,87.66
2018-12-20T23:33:40.129Z,87.90
2018-12-20T23:36:11.157Z,87.64
2018-12-20T23:38:42.143Z,87.75
2018-12-20T23:41:13.183Z,87.49
2018-12-20T23:43:44.331Z,87.32
2018-12-20T23:46:15.511Z,87.58
2018-12-20T23:48:46.371Z,87.68
2018-12-20T23:51:18.230Z,87.66
2018-12-20T23:53:49.256Z,87.35
2018-12-20T23:56:22.691Z,87.26
2018-12-20T23:58:54.418Z,87.50
